Lexington, North Carolina
Current Conditions -  °F | °C
As of 3:15 PM on Monday 26 Jan 2015 (Local Time) from KEXX Reporting Station
Overcast Overcast  
Wind Chill: 46°   Ceiling: 6000
Heat Index: 48°   Visibility: 10mi
Dew Point: 38°   Wind: 5mph
Humidity: 68%   Direction: 280°W
Pressure: 29.61"   Gusts: NA
Location:  35.83°N, 80.25°W
Report Text: KEXX 262015Z AUTO 28004KT 10SM SCT047 BKN060 OVC070 09/03 A2961 RMK AO2 T00870031
Loading
Personal Weather Stations






























Interactive Weather Map New forecast layout! Learn more

10-Day Weather Forecast

Advertisements
Track Severe Weather on mobile